Time;durP1;ratioP1;P1;durP2;ratioP2;P2;SDS_P1;SDS_P2;PMS_P1;PMS_P2;Temp;Humidity;BMP_temperature;BMP_pressure;BME280_temperature;BME280_humidity;BME280_pressure;Samples;Min_cycle;Max_cycle;Signal;HPM_P1;HPM_P2
2024/04/20 16:08:32;;;;;;;3.63;1.10;;;;;;;;;;5241366;27;20002;-88
2024/04/20 16:11:06;;;;;;;0.98;0.98;;;;;;;;;;5243727;27;20219;-83
2024/04/20 16:13:31;;;;;;;2.50;0.95;;;;;;;;;;5245911;27;20075;-85
2024/04/20 16:15:57;;;;;;;1.40;0.98;;;;;;;;;;5245145;27;19999;-86
2024/04/20 16:18:23;;;;;;;2.08;1.00;;;;;;;;;;5245535;27;19999;-87
2024/04/20 16:20:55;;;;;;;1.80;0.90;;;;;;;;;;5245500;27;20010;-86
2024/04/20 16:23:22;;;;;;;1.30;0.77;;;;;;;;;;5245080;27;20365;-82
2024/04/20 16:25:55;;;;;;;0.80;0.80;;;;;;;;;;5245086;27;20461;-82
2024/04/20 16:28:22;;;;;;;8.63;6.35;;;;;;;;;;5245166;27;20536;-82
2024/04/20 16:30:48;;;;;;;1.58;1.05;;;;;;;;;;5244860;27;20003;-83
2024/04/20 16:33:13;;;;;;;1.48;1.35;;;;;;;;;;5243233;27;20009;-83
2024/04/20 16:35:39;;;;;;;0.88;0.88;;;;;;;;;;5244886;27;20454;-83
2024/04/20 16:38:04;;;;;;;2.33;1.30;;;;;;;;;;5244849;27;20444;-85
2024/04/20 16:40:30;;;;;;;2.00;1.10;;;;;;;;;;5245037;27;20003;-80
2024/04/20 16:42:56;;;;;;;1.95;1.10;;;;;;;;;;5244909;27;20557;-82
2024/04/20 16:45:22;;;;;;;1.58;1.20;;;;;;;;;;5244691;27;20015;-80
2024/04/20 16:47:48;;;;;;;1.92;1.05;;;;;;;;;;5243086;27;20009;-81
2024/04/20 16:50:13;;;;;;;0.90;0.90;;;;;;;;;;5244877;27;20435;-83
2024/04/20 16:52:39;;;;;;;1.13;1.02;;;;;;;;;;5246849;27;20086;-81
2024/04/20 16:55:04;;;;;;;1.80;1.00;;;;;;;;;;5247658;27;19999;-81
2024/04/20 16:57:30;;;;;;;1.27;1.10;;;;;;;;;;5247935;27;20402;-85
2024/04/20 16:59:55;;;;;;;1.50;1.20;;;;;;;;;;5247907;27;20011;-83
2024/04/20 17:02:21;;;;;;;2.95;1.30;;;;;;;;;;5247682;27;20339;-84
2024/04/20 17:04:46;;;;;;;2.10;1.50;;;;;;;;;;5247700;27;20020;-86
2024/04/20 17:07:11;;;;;;;2.15;1.30;;;;;;;;;;5247805;27;20010;-82
2024/04/20 17:09:37;;;;;;;3.47;1.80;;;;;;;;;;5250770;27;20010;-85
2024/04/20 17:12:02;;;;;;;4.50;2.40;;;;;;;;;;5280727;27;20021;-83
2024/04/20 17:14:28;;;;;;;4.65;2.40;;;;;;;;;;5281255;27;20017;-83
2024/04/20 17:16:53;;;;;;;2.40;1.60;;;;;;;;;;5281507;27;20014;-81
2024/04/20 17:19:19;;;;;;;1.20;1.10;;;;;;;;;;5281244;27;19998;-83
2024/04/20 17:21:46;;;;;;;1.10;0.95;;;;;;;;;;5281382;27;20002;-84
2024/04/20 17:24:12;;;;;;;1.23;1.10;;;;;;;;;;5281038;27;20014;-82
2024/04/20 17:26:37;;;;;;;2.08;1.60;;;;;;;;;;5281201;27;20068;-83
2024/04/20 17:29:03;;;;;;;1.40;1.13;;;;;;;;;;5280815;27;20017;-82
2024/04/20 17:31:29;;;;;;;1.35;0.90;;;;;;;;;;5281045;27;20013;-84
2024/04/20 17:33:54;;;;;;;0.95;0.95;;;;;;;;;;5251127;27;20002;-84
2024/04/20 17:36:20;;;;;;;1.05;0.95;;;;;;;;;;5251046;27;20047;-81
2024/04/20 17:38:45;;;;;;;2.05;1.10;;;;;;;;;;5281179;27;20002;-87
2024/04/20 17:41:11;;;;;;;2.08;1.58;;;;;;;;;;5281419;27;20481;-85
2024/04/20 17:43:37;;;;;;;1.80;1.15;;;;;;;;;;5276545;27;20084;-82
2024/04/20 17:46:06;;;;;;;0.93;0.93;;;;;;;;;;5280585;27;20006;-84
2024/04/20 17:48:31;;;;;;;1.67;1.40;;;;;;;;;;5281271;27;20076;-82
2024/04/20 17:51:00;;;;;;;1.45;1.20;;;;;;;;;;5281702;27;20010;-80
2024/04/20 17:53:26;;;;;;;1.30;1.20;;;;;;;;;;5281038;27;20089;-80
2024/04/20 17:55:52;;;;;;;2.20;2.00;;;;;;;;;;5281283;27;20002;-85
2024/04/20 17:58:18;;;;;;;1.58;1.05;;;;;;;;;;5281624;27;20577;-85
2024/04/20 18:00:52;;;;;;;1.33;1.10;;;;;;;;;;5281037;27;19998;-84
2024/04/20 18:03:17;;;;;;;2.90;1.10;;;;;;;;;;5279466;27;20076;-85
2024/04/20 18:05:43;;;;;;;3.67;2.25;;;;;;;;;;5281010;27;20018;-85
2024/04/20 18:08:10;;;;;;;1.75;1.55;;;;;;;;;;5280609;27;20021;-79
2024/04/20 18:10:35;;;;;;;2.00;1.60;;;;;;;;;;5280855;27;20022;-83
2024/04/20 18:13:01;;;;;;;2.22;1.80;;;;;;;;;;5250750;27;20009;-80
2024/04/20 18:15:27;;;;;;;2.08;1.80;;;;;;;;;;5280316;27;20031;-83
2024/04/20 18:17:52;;;;;;;2.67;1.70;;;;;;;;;;5280895;27;20013;-84
2024/04/20 18:20:18;;;;;;;2.58;1.50;;;;;;;;;;5280874;27;20013;-81
2024/04/20 18:22:44;;;;;;;1.58;1.30;;;;;;;;;;5280405;27;20013;-84
2024/04/20 18:25:09;;;;;;;1.30;1.20;;;;;;;;;;5280941;27;20301;-85
2024/04/20 18:27:35;;;;;;;2.40;1.63;;;;;;;;;;5280929;27;19998;-81
2024/04/20 18:30:02;;;;;;;1.25;1.15;;;;;;;;;;5250285;27;20022;-85
2024/04/20 18:32:27;;;;;;;0.98;0.98;;;;;;;;;;5279776;27;20013;-83
2024/04/20 18:34:53;;;;;;;2.05;1.23;;;;;;;;;;5279769;27;20006;-83
2024/04/20 18:37:18;;;;;;;0.95;0.95;;;;;;;;;;5279993;27;20017;-83
2024/04/20 18:39:43;;;;;;;1.25;1.15;;;;;;;;;;5249987;27;20017;-83
2024/04/20 18:42:09;;;;;;;1.67;1.10;;;;;;;;;;5280039;27;20441;-88
2024/04/20 18:44:34;;;;;;;0.95;0.95;;;;;;;;;;5280080;27;20449;-84
2024/04/20 18:46:59;;;;;;;0.85;0.85;;;;;;;;;;5280081;27;20003;-81
2024/04/20 18:49:25;;;;;;;1.20;1.10;;;;;;;;;;5280144;27;19998;-80
2024/04/20 18:51:51;;;;;;;1.20;1.10;;;;;;;;;;5280462;27;20013;-84
2024/04/20 18:54:17;;;;;;;1.40;1.30;;;;;;;;;;5280169;27;19998;-83
2024/04/20 18:56:42;;;;;;;1.50;1.40;;;;;;;;;;5280168;27;20329;-82
2024/04/20 18:59:07;;;;;;;1.75;1.10;;;;;;;;;;5279911;27;20010;-82
2024/04/20 19:01:33;;;;;;;1.33;1.23;;;;;;;;;;5280504;27;20078;-85
2024/04/20 19:03:58;;;;;;;1.17;0.93;;;;;;;;;;5280308;27;20009;-81
2024/04/20 19:06:24;;;;;;;1.98;1.15;;;;;;;;;;5280549;27;20010;-83
2024/04/20 19:08:51;;;;;;;1.40;1.30;;;;;;;;;;5279836;27;20464;-85
2024/04/20 19:11:20;;;;;;;1.15;1.05;;;;;;;;;;5279926;27;20073;-82
2024/04/20 19:13:46;;;;;;;1.25;1.15;;;;;;;;;;5279026;27;20349;-91
2024/04/20 19:16:12;;;;;;;2.15;1.25;;;;;;;;;;5279358;27;20003;-85
2024/04/20 19:18:40;;;;;;;1.23;1.13;;;;;;;;;;5279996;27;20018;-83
2024/04/20 19:21:06;;;;;;;1.08;1.00;;;;;;;;;;5279904;27;20002;-82
2024/04/20 19:23:34;;;;;;;2.58;1.02;;;;;;;;;;5280001;27;20002;-82
2024/04/20 19:26:04;;;;;;;1.70;1.52;;;;;;;;;;5280116;27;20487;-81
2024/04/20 19:28:31;;;;;;;1.48;0.80;;;;;;;;;;5280195;27;20025;-81
2024/04/20 19:30:59;;;;;;;0.90;0.90;;;;;;;;;;5249143;27;20345;-81
2024/04/20 19:33:27;;;;;;;2.28;1.25;;;;;;;;;;5279022;27;20334;-81
2024/04/20 19:36:01;;;;;;;2.10;1.10;;;;;;;;;;5279007;27;20009;-80
2024/04/20 19:38:27;;;;;;;1.30;0.80;;;;;;;;;;5274525;27;20480;-81
2024/04/20 19:40:59;;;;;;;0.80;0.80;;;;;;;;;;5279111;27;20087;-82
2024/04/20 19:43:27;;;;;;;0.80;0.80;;;;;;;;;;5278963;27;20006;-84
2024/04/20 19:45:54;;;;;;;0.60;0.60;;;;;;;;;;5278856;27;20057;-80
2024/04/20 19:48:19;;;;;;;0.65;0.65;;;;;;;;;;5279080;27;20362;-81
2024/04/20 19:50:44;;;;;;;0.60;0.60;;;;;;;;;;5278899;27;20006;-82
2024/04/20 19:53:10;;;;;;;0.85;0.85;;;;;;;;;;5279179;27;20017;-79
2024/04/20 19:55:35;;;;;;;1.70;0.85;;;;;;;;;;5279302;27;20009;-80
2024/04/20 19:58:01;;;;;;;0.70;0.70;;;;;;;;;;5279597;27;20013;-80
2024/04/20 20:00:26;;;;;;;0.70;0.70;;;;;;;;;;5279558;27;20002;-81
2024/04/20 20:02:54;;;;;;;1.10;1.00;;;;;;;;;;5279390;27;20039;-79
2024/04/20 20:05:23;;;;;;;0.60;0.57;;;;;;;;;;5279198;27;19998;-80
2024/04/20 20:07:49;;;;;;;2.78;0.73;;;;;;;;;;5279063;27;20077;-80
2024/04/20 20:10:18;;;;;;;0.60;0.60;;;;;;;;;;5275603;27;20038;-80
2024/04/20 20:12:43;;;;;;;0.68;0.68;;;;;;;;;;5313298;27;20064;-83
2024/04/20 20:15:08;;;;;;;1.33;1.00;;;;;;;;;;5313013;26;20005;-83
2024/04/20 20:17:34;;;;;;;1.08;0.90;;;;;;;;;;5313236;27;19997;-81
2024/04/20 20:20:03;;;;;;;0.80;0.80;;;;;;;;;;5312975;27;20001;-83
2024/04/20 20:22:29;;;;;;;0.73;0.73;;;;;;;;;;5313002;27;20029;-83
2024/04/20 20:24:54;;;;;;;0.80;0.80;;;;;;;;;;5313123;26;20047;-83
2024/04/20 20:27:21;;;;;;;0.70;0.65;;;;;;;;;;5311945;27;20001;-86
2024/04/20 20:29:51;;;;;;;1.92;1.35;;;;;;;;;;5312780;27;19998;-82
2024/04/20 20:32:16;;;;;;;0.82;0.77;;;;;;;;;;5313438;27;20068;-80
2024/04/20 20:34:46;;;;;;;0.70;0.70;;;;;;;;;;5312833;26;20143;-81
2024/04/20 20:37:11;;;;;;;1.23;1.00;;;;;;;;;;5313194;27;19998;-80
2024/04/20 20:39:37;;;;;;;0.68;0.68;;;;;;;;;;5282368;27;20395;-79
2024/04/20 20:42:02;;;;;;;0.68;0.68;;;;;;;;;;5312768;27;20411;-82
2024/04/20 20:44:28;;;;;;;1.10;1.00;;;;;;;;;;5312753;26;19998;-78
2024/04/20 20:46:53;;;;;;;2.42;1.10;;;;;;;;;;5282477;27;20010;-80
2024/04/20 20:49:19;;;;;;;0.70;0.70;;;;;;;;;;5312534;27;20006;-80
2024/04/20 20:51:44;;;;;;;0.70;0.70;;;;;;;;;;5313087;27;20076;-81
2024/04/20 20:54:10;;;;;;;0.65;0.65;;;;;;;;;;5312659;26;20038;-83
2024/04/20 20:56:35;;;;;;;0.70;0.70;;;;;;;;;;5312408;27;20009;-79
2024/04/20 20:59:00;;;;;;;0.70;0.70;;;;;;;;;;5312814;27;20013;-79
2024/04/20 21:01:26;;;;;;;1.45;0.90;;;;;;;;;;5312641;27;20030;-79
2024/04/20 21:03:52;;;;;;;5.97;1.13;;;;;;;;;;5312542;26;20009;-81
2024/04/20 21:06:17;;;;;;;2.63;0.63;;;;;;;;;;5282126;27;20126;-84
2024/04/20 21:08:43;;;;;;;0.60;0.60;;;;;;;;;;5312524;27;19998;-85
2024/04/20 21:11:08;;;;;;;0.63;0.63;;;;;;;;;;5282117;27;19998;-82
2024/04/20 21:13:40;;;;;;;1.77;0.80;;;;;;;;;;5312315;26;20009;-81
2024/04/20 21:16:07;;;;;;;0.85;0.70;;;;;;;;;;5312396;27;20001;-84
2024/04/20 21:18:37;;;;;;;0.60;0.60;;;;;;;;;;5282269;27;20006;-86
2024/04/20 21:21:13;;;;;;;0.60;0.60;;;;;;;;;;5312363;27;20013;-82
2024/04/20 21:23:40;;;;;;;0.60;0.60;;;;;;;;;;5311916;26;20468;-86
2024/04/20 21:26:12;;;;;;;0.70;0.70;;;;;;;;;;5312152;27;20005;-87
2024/04/20 21:28:37;;;;;;;0.80;0.80;;;;;;;;;;5312218;27;20005;-87
2024/04/20 21:31:07;;;;;;;0.75;0.70;;;;;;;;;;5312387;27;20002;-86
2024/04/20 21:33:33;;;;;;;0.70;0.70;;;;;;;;;;5312175;26;20076;-88
2024/04/20 21:35:59;;;;;;;1.55;0.63;;;;;;;;;;5312220;27;20001;-89
2024/04/20 21:38:24;;;;;;;0.70;0.70;;;;;;;;;;5284093;27;20460;-86
2024/04/20 21:40:50;;;;;;;0.70;0.70;;;;;;;;;;5315486;27;20028;-87
2024/04/20 21:43:15;;;;;;;1.92;0.75;;;;;;;;;;5315726;27;20444;-88
2024/04/20 21:45:48;;;;;;;0.73;0.70;;;;;;;;;;5315369;26;20510;-81
2024/04/20 21:48:14;;;;;;;0.60;0.60;;;;;;;;;;5284623;27;20400;-83
2024/04/20 21:50:39;;;;;;;0.60;0.60;;;;;;;;;;5280905;27;20007;-81
2024/04/20 21:53:04;;;;;;;0.65;0.60;;;;;;;;;;5281163;27;20006;-81
2024/04/20 21:55:30;;;;;;;0.50;0.50;;;;;;;;;;5280938;27;20049;-88
2024/04/20 21:57:55;;;;;;;1.15;0.70;;;;;;;;;;5280937;27;20003;-86
